Home > Products > Valid Products > TAF

000
FTUS46 KSEW 201100
TAFBFI
TAF
KBFI 201120Z 2012/2112 13005KT P6SM -RA SCT035 OVC050
      TEMPO 2013/2016 6SM -RA BR OVC030
     FM201800 18006KT P6SM -SHRA SCT035 BKN050
     FM210000 15004KT P6SM -SHRA SCT035 BKN050
     FM210400 VRB03KT P6SM VCSH OVC035=



000
FTUS46 KSEW 201100
TAFOLM
TAF
KOLM 201120Z 2012/2112 20005KT 6SM -RA BR SCT015 OVC035
      TEMPO 2012/2016 4SM -RA BR OVC015
     FM201800 20008KT 6SM -SHRA BR BKN030 OVC050
     FM202000 21008KT P6SM -SHRA SCT035 BKN050
     FM210200 20005KT P6SM VCSH OVC035
     FM211000 19004KT 4SM BR OVC020=



000
FTUS46 KSEW 201100
TAFHQM
TAF
KHQM 201120Z 2012/2112 16010KT 6SM -SHRA BR SCT008 OVC015
      TEMPO 2012/2015 2SM SHRA BR OVC008
     FM201500 16008KT 6SM -SHRA BKN022 BKN040
     FM201700 17009KT P6SM -SHRA SCT025 OVC050
     FM210100 10005KT P6SM VCSH SCT025 OVC035=



000
FTUS46 KSEW 201100
TAFSEA
TAF
KSEA 201120Z 2012/2118 14007KT 6SM -RA BR SCT030 OVC050
      TEMPO 2013/2016 5SM -RA BR OVC025
     FM201800 21009KT P6SM -SHRA BKN035 OVC050
     FM210600 19006KT P6SM VCSH OVC030=



000
FTUS46 KSEW 201100
TAFBLI
TAF
KBLI 201120Z 2012/2112 17010G18KT P6SM -RA OVC030
      TEMPO 2012/2016 4SM -RA BR OVC022
     FM202100 17006KT P6SM -SHRA OVC040
     FM210000 14005KT P6SM VCSH BKN040 OVC060=



000
FTUS46 KSEW 201100
TAFPAE
TAF
KPAE 201120Z 2012/2112 15010KT 6SM -RA BR BKN025 OVC050
     FM201900 17008KT P6SM -SHRA SCT030 OVC050
     FM210600 14006KT P6SM VCSH OVC030=



000
FTUS46 KSEW 201100
TAFCLM
TAF
KCLM 201120Z 2012/2112 24005KT P6SM -RA BKN015 OVC030
     FM201800 VRB03KT P6SM -SHRA BKN030 OVC060
     FM202000 VRB03KT P6SM -SHRA SCT030 BKN060
     FM210200 23005KT P6SM VCSH BKN060 BKN080=



000
FTUS46 KSEW 201000 AAB
TAFHQM
TAF AMD
KHQM 201023Z 2010/2106 16010KT 5SM -RA BR SCT009 OVC015
      TEMPO 2010/2013 2SM RA BR OVC009
     FM201300 16008KT 6SM -SHRA BKN022 BKN040
     FM201800 17009KT P6SM -SHRA SCT025 BKN040=



000
FTUS46 KSEW 201000 AAB
TAFBLI
TAF AMD
KBLI 201006Z 2010/2106 14012G22KT P6SM -RA OVC050
      TEMPO 2011/2015 4SM -RA BR OVC030
     FM201500 17008KT P6SM -RA BKN030 BKN040
     FM201800 17006KT P6SM -SHRA BKN030 OVC050=



000
FTUS46 KSEW 201000 AAB
TAFBLI
TAF AMD
KBLI 201006Z 2010/2106 14012G22KT P6SM -RA OVC050
      TEMPO 2011/2015 4SM -RA BR OVC030
     FM201500 17008KT P6SM -RA BKN030 BKN040
     FM201800 17006KT P6SM -SHRA BKN030 OVC050=



000
FTUS46 KSEW 200900 AAA
TAFSEA
TAF AMD
KSEA 200907Z 2009/2112 12005KT P6SM -RA OVC050
     FM201200 16006KT 5SM -RA BR OVC025
     FM201900 21008KT P6SM -SHRA SCT025 BKN050
     FM210600 19006KT P6SM VCSH OVC025=



000
FTUS46 KSEW 200800 AAA
TAFHQM
TAF AMD
KHQM 200806Z 2008/2106 16010KT 5SM -RA BR SCT012 OVC025
     FM201200 16008KT 6SM -SHRA BKN025 BKN040
     FM201800 17009KT P6SM -SHRA SCT025 BKN040=



000
FTUS46 KSEW 200800 AAA
TAFHQM
TAF AMD
KHQM 200806Z 2008/2106 16010KT 5SM -RA BR SCT012 OVC025
     FM201200 16008KT 6SM -SHRA BKN025 BKN040
     FM201800 17009KT P6SM -SHRA SCT025 BKN040=



000
FTUS46 KSEW 200800 AAA
TAFCLM
TAF AMD
KCLM 200804Z 2008/2106 30006KT P6SM -RA BKN025 OVC040
     FM201300 VRB03KT P6SM -SHRA BKN030 OVC060
     FM201900 VRB03KT P6SM -SHRA SCT030 BKN060
      TEMPO 2021/2101 SHRA OVC030=



000
FTUS46 KSEW 200800 AAA
TAFCLM
TAF AMD
KCLM 200804Z 2008/2106 30006KT P6SM -RA BKN025 OVC040
     FM201300 VRB03KT P6SM -SHRA BKN030 OVC060
     FM201900 VRB03KT P6SM -SHRA SCT030 BKN060
      TEMPO 2021/2101 SHRA OVC030=



000
FTUS46 KSEW 200800 AAA
TAFOLM
TAF AMD
KOLM 200803Z 2008/2106 20005KT 5SM -RA BR OVC030
     FM201800 20008KT 5SM -SHRA BR BKN015 OVC030
     FM202000 21008KT P6SM -SHRA SCT035 BKN050=



000
FTUS46 KSEW 200800 AAA
TAFOLM
TAF AMD
KOLM 200803Z 2008/2106 20005KT 5SM -RA BR OVC030
     FM201800 20008KT 5SM -SHRA BR BKN015 OVC030
     FM202000 21008KT P6SM -SHRA SCT035 BKN050=



000
FTUS46 KSEW 200700 AAA
TAFBLI
TAF AMD
KBLI 200706Z 2007/2106 17010KT 4SM -RA BR OVC040
     FM201000 17008KT 4SM -RA BR OVC025
     FM201800 17006KT P6SM -SHRA BKN030 OVC050=



000
FTUS46 KSEW 200500
TAFSEA
TAF
KSEA 200520Z 2006/2112 21006KT P6SM SCT050 OVC100
     FM200900 20006KT P6SM -RA OVC050
     FM201200 18008KT 5SM -RA BR BKN020 OVC040
     FM201900 21010KT P6SM -SHRA SCT025 BKN050
     FM210600 19006KT P6SM VCSH OVC025=



000
FTUS46 KSEW 200500
TAFBFI
TAF
KBFI 200520Z 2006/2106 16005KT P6SM SCT050 OVC100
     FM200900 16006KT P6SM -RA OVC050
     FM201200 16008KT P6SM -RA BKN025 OVC045
     FM201900 19006KT P6SM -SHRA SCT030 BKN050
     FM210000 18004KT P6SM -SHRA SCT030 BKN050
     FM210400 VRB03KT P6SM VCSH OVC030=



000
FTUS46 KSEW 200500
TAFHQM
TAF
KHQM 200520Z 2006/2106 16010KT 3SM -RA BR OVC011
     FM201400 16008KT 5SM -SHRA OVC015
     FM201800 17009KT P6SM -SHRA SCT025 BKN040=



000
FTUS46 KSEW 200500
TAFOLM
TAF
KOLM 200520Z 2006/2106 19005KT P6SM -RA FEW010 OVC050
     FM200800 20005KT 3SM -RA BR OVC007
     FM201800 20008KT 5SM -SHRA BR BKN015 OVC030
     FM202000 21008KT P6SM -SHRA SCT035 BKN050=



000
FTUS46 KSEW 200500
TAFCLM
TAF
KCLM 200520Z 2006/2106 30006KT 4SM -RA BR BKN009 OVC015
      TEMPO 2009/2013 2SM -RA BR OVC004
     FM201600 VRB03KT P6SM -SHRA BKN030 OVC060
     FM201900 VRB03KT P6SM -SHRA SCT030 BKN060
      TEMPO 2021/2101 SHRA OVC030=



000
FTUS46 KSEW 200500
TAFPAE
TAF
KPAE 200520Z 2006/2106 18008KT P6SM SCT050 OVC100
     FM200800 17010KT P6SM -RA OVC050
     FM201200 16010KT 4SM -RA BR BKN020 OVC035
     FM201900 17008KT P6SM -SHRA SCT020 BKN035=



000
FTUS46 KSEW 200500
TAFBLI
TAF
KBLI 200520Z 2006/2106 17012G22KT P6SM -RA BKN060 OVC100
     FM200700 17012G22KT P6SM -RA OVC040
     FM200900 17012KT 4SM -RA BR OVC025
     FM201800 17006KT P6SM -SHRA BKN030 OVC050=



000
FTUS46 KSEW 200400 AAA
TAFOLM
TAF AMD
KOLM 200412Z 2004/2024 20005KT P6SM SCT025 OVC050
     FM200600 19005KT 6SM -RA BR FEW010 OVC025
     FM200800 20005KT 3SM -RA BR OVC007
     FM201800 20008KT 5SM -SHRA BR BKN015 OVC030
     FM202000 21008KT P6SM -SHRA SCT035 BKN050=



000
FTUS46 KSEW 200300 AAA
TAFBLI
TAF AMD
KBLI 200342Z 2004/2024 17012G22KT P6SM -RA BKN050 OVC100
     FM200700 17010KT 4SM -RA BR OVC025
     FM201800 13006KT P6SM -SHRA BKN030 OVC050=



000
FTUS46 KSEW 200300 AAB
TAFCLM
TAF AMD
KCLM 200341Z 2004/2024 30006KT P6SM -RA SCT009 OVC050
      TEMPO 2004/2006 4SM RA BR OVC009
     FM200600 29006KT 4SM -RA BR OVC015
     FM201600 VRB03KT P6SM -SHRA BKN030 OVC060=



000
FTUS46 KSEW 200300 AAA
TAFCLM
TAF AMD
KCLM 200319Z 2003/2024 VRB03KT P6SM -RA SCT009 OVC050
      TEMPO 2004/2006 4SM RA BR OVC009
     FM200600 VRB03KT 4SM -RA BR OVC015
     FM201600 VRB03KT P6SM -SHRA BKN030 OVC060
      AMD NOT SKED=



000
FTUS46 KSEW 200300 AAB
TAFHQM
TAF AMD
KHQM 200302Z 2003/2024 18010KT 5SM -RA SCT008 OVC018
      TEMPO 2003/2006 2SM RA BR OVC008
     FM200600 15006KT 4SM -RA BR OVC008
     FM201600 13005KT 4SM -SHRA OVC015
     FM202000 15008KT P6SM -SHRA SCT025 BKN050=



000
FTUS46 KSEW 200000 AAA
TAFHQM
TAF AMD
KHQM 200016Z 2000/2024 17016G26KT 2SM -RA BKN015 OVC030
     FM200300 18010KT 2SM RA BKN008 OVC015
     FM201000 15006KT 2SM -RA BR OVC006
     FM201600 13005KT 4SM -SHRA OVC015
     FM202000 15008KT P6SM -SHRA SCT025 BKN050=



000
FTUS46 KSEW 192300
TAFBLI
TAF
KBLI 192321Z 2000/2024 15018G28KT P6SM SCT070 BKN120
     FM200300 17008KT P6SM -RA BKN050 OVC100
     FM200600 17008KT 4SM -RA BR OVC025
     FM201800 13006KT P6SM -SHRA BKN030 OVC050=



000
FTUS46 KSEW 192300
TAFHQM
TAF
KHQM 192321Z 2000/2024 17016G26KT 2SM -RA OVC050
     FM200300 18010KT 2SM RA BKN015 OVC030
     FM201000 15006KT 2SM -RA BR OVC007
     FM201600 13005KT 4SM -SHRA OVC015
     FM202000 15008KT P6SM -SHRA SCT025 BKN050=



000
FTUS46 KSEW 192300
TAFCLM
TAF
KCLM 192321Z 2000/2024 00000KT P6SM BKN090
     FM200300 VRB03KT P6SM -RA OVC050
     FM200600 VRB03KT 4SM -RA BR OVC015
     FM201600 VRB03KT P6SM -SHRA BKN030 OVC060
      AMD NOT SKED=



000
FTUS46 KSEW 192300
TAFOLM
TAF
KOLM 192321Z 2000/2024 19006KT P6SM SCT050 BKN110
     FM200200 20005KT P6SM -RA BKN050 OVC090
     FM200400 20005KT 4SM -RA BR BKN025 OVC050
     FM200800 20005KT 2SM -RA BR OVC007
     FM201800 20008KT 5SM -SHRA BR BKN015 OVC030
     FM202000 21008KT P6SM -SHRA SCT035 BKN050=



000
FTUS46 KSEW 192300
TAFBFI
TAF
KBFI 192321Z 2000/2024 19008KT P6SM FEW040 SCT070
     FM200500 16005KT P6SM BKN050 OVC150
     FM200700 16006KT P6SM -RA OVC050
     FM201100 18008KT P6SM -RA BKN025 OVC045
     FM202000 19006KT P6SM -SHRA SCT030 BKN050=



000
FTUS46 KSEW 192300
TAFPAE
TAF
KPAE 192321Z 2000/2024 18012KT P6SM FEW040 SCT070
     FM200500 18008KT P6SM BKN050 OVC150
     FM200800 17010KT 6SM -RA OVC050
     FM201200 16010KT 4SM -RA BR BKN020 OVC040
     FM202000 17008KT P6SM -SHRA SCT025 BKN050=



000
FTUS46 KSEW 192300
TAFSEA
TAF
KSEA 192321Z 2000/2106 21010KT P6SM FEW040 SCT070
     FM200500 18006KT P6SM BKN050 OVC150
     FM200700 18006KT P6SM -RA OVC050
     FM201100 18008KT 4SM -RA BR BKN020 OVC040
     FM202000 21008KT P6SM -SHRA SCT025 BKN050=



000
FTUS46 KSEW 192300
TAFPAE
TAF
KPAE 192321Z 2000/2024 18012KT P6SM FEW040 SCT070
     FM200500 18008KT P6SM BKN050 OVC150
     FM200800 17010KT 6SM -RA OVC050
     FM201200 16010KT 4SM -RA BR BKN020 OVC040
     FM202000 17008KT P6SM -SHRA SCT025 BKN050=



000
FTUS46 KSEW 192300
TAFSEA
TAF
KSEA 192321Z 2000/2106 21010KT P6SM FEW040 SCT070
     FM200500 18006KT P6SM BKN050 OVC150
     FM200700 18006KT P6SM -RA OVC050
     FM201100 18008KT 4SM -RA BR BKN020 OVC040
     FM202000 21008KT P6SM -SHRA SCT025 BKN050=



000
FTUS46 KSEW 192300
TAFBLI
TAF
KBLI 192321Z 2000/2024 15018G28KT P6SM SCT070 BKN120
     FM200300 17008KT P6SM -RA BKN050 OVC100
     FM200600 17008KT 4SM -RA BR OVC025
     FM201800 13006KT P6SM -SHRA BKN030 OVC050=



000
FTUS46 KSEW 192300
TAFCLM
TAF
KCLM 192321Z 2000/2024 00000KT P6SM BKN090
     FM200300 VRB03KT P6SM -RA OVC050
     FM200600 VRB03KT 4SM -RA BR OVC015
     FM201600 VRB03KT P6SM -SHRA BKN030 OVC060
      AMD NOT SKED=



000
FTUS46 KSEW 192300
TAFOLM
TAF
KOLM 192321Z 2000/2024 19006KT P6SM SCT050 BKN110
     FM200200 20005KT P6SM -RA BKN050 OVC090
     FM200400 20005KT 4SM -RA BR BKN025 OVC050
     FM200800 20005KT 2SM -RA BR OVC007
     FM201800 20008KT 5SM -SHRA BR BKN015 OVC030
     FM202000 21008KT P6SM -SHRA SCT035 BKN050=



000
FTUS46 KSEW 192300
TAFBFI
TAF
KBFI 192321Z 2000/2024 19008KT P6SM FEW040 SCT070
     FM200500 16005KT P6SM BKN050 OVC150
     FM200700 16006KT P6SM -RA OVC050
     FM201100 18008KT P6SM -RA BKN025 OVC045
     FM202000 19006KT P6SM -SHRA SCT030 BKN050=



000
FTUS46 KSEW 192300
TAFHQM
TAF
KHQM 192321Z 2000/2024 17016G26KT 2SM -RA OVC050
     FM200300 18010KT 2SM RA BKN015 OVC030
     FM201000 15006KT 2SM -RA BR OVC007
     FM201600 13005KT 4SM -SHRA OVC015
     FM202000 15008KT P6SM -SHRA SCT025 BKN050=



000
FTUS46 KSEW 192100 AAA
TAFSEA
TAF AMD
KSEA 192100Z 1921/2024 18010KT P6SM FEW040 SCT070 BKN150
     FM200300 18006KT P6SM OVC050
     FM200800 18006KT 6SM -RA OVC050
     FM201400 18008KT 4SM -RA BR BKN020 OVC040
     FM202000 21008KT P6SM -SHRA BKN025 OVC050=



000
FTUS46 KSEW 191700
TAFBLI
TAF
KBLI 191722Z 1918/2018 13004KT P6SM SCT070 BKN120
     FM192300 16008KT P6SM OVC050
      TEMPO 2001/2003 -RA
     FM200300 17008KT P6SM -RA OVC050
     FM200500 17008KT 4SM -RA BR OVC025=



000
FTUS46 KSEW 191700
TAFCLM
TAF
KCLM 191722Z 1918/2018 VRB03KT P6SM SCT002 BKN080
      TEMPO 1918/1920 1/2SM FG VV002
     FM192000 08005KT P6SM SCT080 BKN120
     FM200000 VRB03KT P6SM -RA OVC050
     FM200600 VRB03KT 4SM -RA BR OVC015
     FM201600 VRB03KT P6SM -SHRA BKN030 OVC060=



000
FTUS46 KSEW 191700
TAFBFI
TAF
KBFI 191722Z 1918/2018 16006KT P6SM FEW070 BKN120
     FM200300 16005KT P6SM OVC050 PROB30 2004/2008 -RA
     FM200800 16006KT P6SM -RA OVC050
     FM201400 18008KT P6SM -RA BKN025 OVC045=



000
FTUS46 KSEW 191700
TAFOLM
TAF
KOLM 191722Z 1918/2018 19007KT P6SM SCT070 BKN120
     FM200200 20005KT P6SM OVC050
      TEMPO 2002/2005 4SM -RA OVC030
     FM200500 20005KT 4SM -RA BR BKN025 OVC050
     FM201000 20005KT 2SM -RA BR OVC007=



000
FTUS46 KSEW 191700
TAFSEA
TAF
KSEA 191722Z 1918/2024 20008KT P6SM FEW070 BKN120
     FM200300 18006KT P6SM OVC050 PROB30 2004/2008 -RA
     FM200800 18006KT 6SM -RA OVC050
     FM201400 18008KT 4SM -RA BR BKN020 OVC040
     FM202000 21008KT P6SM -SHRA BKN025 OVC050=



000
FTUS46 KSEW 191700
TAFHQM
TAF
KHQM 191722Z 1918/2018 15012G20KT P6SM BKN040 BKN100
     FM192200 18014G20KT 5SM -RA OVC040
     FM200300 18010KT 3SM RA BKN015 OVC030
     FM201000 15006KT 2SM -RA BR OVC007
     FM201600 13005KT 4SM -SHRA OVC015=



000
FTUS46 KSEW 191700
TAFPAE
TAF
KPAE 191722Z 1918/2018 18010KT P6SM SCT070 BKN120
     FM200300 18008KT P6SM OVC050 PROB30 2004/2008 -RA
     FM200800 17010KT 6SM -RA OVC050
     FM201400 16010KT 4SM -RA BR BKN020 OVC040=



000
FTUS46 KSEW 191600 AAA
TAFBFI
TAF AMD
KBFI 191630Z 1917/2012 15008KT P6SM SCT060 BKN100
     FM192000 17008KT P6SM SCT050 BKN150
     FM200600 15005KT P6SM -RA OVC050=



000
FTUS46 KSEW 191500 AAA
TAFSEA
TAF AMD
KSEA 191501Z 1915/2018 16005KT P6SM FEW002 SCT070 BKN100
     FM191700 17006KT P6SM SCT060 BKN120
     FM200600 18008KT P6SM -RA OVC050
     FM201200 15006KT P6SM -RA OVC030=



000
FTUS46 KSEW 191300 AAA
TAFOLM
TAF AMD
KOLM 191314Z 1913/2012 00000KT P6SM SCT002 BKN070
      TEMPO 1913/1916 1SM BR BKN002
     FM191600 18004KT P6SM SCT008 SCT060 BKN150
     FM191700 19006KT P6SM SCT050 BKN100
     FM200000 20006KT P6SM BKN050 OVC090
     FM200500 20006KT 5SM -RA BR OVC040
     FM200800 19008KT 4SM RA BR OVC018=



000
FTUS46 KSEW 191100
TAFBFI
TAF
KBFI 191120Z 1912/2012 VRB03KT P6SM SCT070 BKN150
      TEMPO 1913/1916 14003KT 3SM BR OVC006
     FM191600 14004KT 5SM BR BKN010 OVC150
     FM191700 15005KT P6SM SCT070 OVC150
     FM192000 17005KT P6SM SCT050 BKN150
     FM200600 15005KT P6SM -RA OVC050=



000
FTUS46 KSEW 191100
TAFBLI
TAF
KBLI 191120Z 1912/2012 VRB03KT P6SM BKN070 BKN150
     FM191900 13005KT P6SM BKN060 BKN150
     FM200400 17010KT P6SM -RA OVC045
     FM200800 17010KT 5SM -RA BR OVC025=



000
FTUS46 KSEW 191100
TAFOLM
TAF
KOLM 191120Z 1912/2012 00000KT 1/4SM FG VV001
     FM191600 18004KT 2SM BR SCT008 SCT060 BKN150
     FM191700 19006KT P6SM SCT050 BKN100
     FM200000 20006KT P6SM BKN050 OVC090
     FM200500 20006KT 5SM -RA BR OVC040
     FM200800 19008KT 4SM RA BR OVC018=



000
FTUS46 KSEW 191100
TAFSEA
TAF
KSEA 191120Z 1912/2018 13004KT P6SM FEW002 SCT070 BKN150
      TEMPO 1913/1916 15004KT 1SM BR OVC002
     FM191600 17004KT 3SM BR BKN006 OVC150
     FM191700 17006KT P6SM SCT050 BKN150
     FM200600 18008KT P6SM -RA OVC050
     FM201200 15006KT P6SM -RA OVC030=



000
FTUS46 KSEW 191100
TAFCLM
TAF
KCLM 191120Z 1912/2012 VRB04KT P6SM FEW006 BKN070 BKN120
      TEMPO 1912/1914 3SM BR BKN006
     FM192200 24006KT P6SM OVC070
     FM200100 23006KT 5SM -RA BR OVC045
     FM200400 25008KT 4SM RA BR OVC035=



000
FTUS46 KSEW 191100
TAFPAE
TAF
KPAE 191120Z 1912/2012 13005KT P6SM BKN070 OVC120
     FM192000 17011KT P6SM BKN050 BKN120
     FM200500 16008KT P6SM -RA OVC035
     FM201000 15007KT P6SM -RA OVC025=



000
FTUS46 KSEW 191100
TAFHQM
TAF
KHQM 191120Z 1912/2012 06004KT 5SM BR SCT009 BKN050 OVC100
      TEMPO 1912/1915 2SM BR OVC009
     FM191500 09008KT P6SM BKN050 OVC100
     FM192000 14010KT P6SM -RA SCT018 OVC050
     FM200000 16012G20KT 4SM RA BR OVC018
     FM200800 12006KT 5SM -SHRA BR BKN012 OVC025=



000
FTUS46 KSEW 190900 AAB
TAFSEA
TAF AMD
KSEA 190900Z 1909/2012 15004KT P6SM BKN150
     FM191300 15004KT 1SM BR OVC002
     FM191700 17004KT 3SM BR BKN006 OVC150
     FM191800 17006KT P6SM SCT050 BKN150
     FM200600 18008KT P6SM -RA OVC050=



000
FTUS46 KSEW 190700 AAA
TAFOLM
TAF AMD
KOLM 190716Z 1907/2006 00000KT 1/4SM FG VV001
     FM191500 18004KT 2SM BR SCT008 SCT060 BKN150
     FM191800 19006KT P6SM SCT050 BKN100=



000
FTUS46 KSEW 190700 AAA
TAFBFI
TAF AMD
KBFI 190715Z 1907/2006 VRB03KT P6SM SCT070 BKN150
     FM191400 14003KT 3SM BR OVC006
     FM191700 14004KT 5SM BR BKN010 OVC150
     FM191800 15005KT P6SM SCT070 OVC150
     FM192000 17005KT P6SM SCT050 BKN150=



000
FTUS46 KSEW 190700 AAA
TAFSEA
TAF AMD
KSEA 190713Z 1907/2012 15004KT P6SM SCT060 BKN150
     FM191300 15004KT 1SM BR OVC002
     FM191700 17004KT 3SM BR BKN006 OVC150
     FM191800 17006KT P6SM SCT050 BKN150
     FM200600 18008KT P6SM -RA OVC050=



000
FTUS46 KSEW 190600 CCA
TAFCLM
TAF COR
KCLM 190616Z 1906/2006 VRB03KT P6SM SCT050 BKN150
      TEMPO 1910/1914 3SM BR SCT010 SCT050 SCT150
     FM200000 24004KT P6SM OVC070
     FM200100 23006KT 5SM -RA BR OVC045
      AMD NOT SKED=



000
FTUS46 KSEW 190500
TAFBLI
TAF
KBLI 190525Z 1906/2006 VRB03KT P6SM BKN070 BKN150
     FM191900 16008KT P6SM BKN050 BKN150
     FM200300 17010KT P6SM -RA OVC045
     FM200500 17010KT P6SM -RA OVC025=



000
FTUS46 KSEW 190500
TAFSEA
TAF
KSEA 190525Z 1906/2012 11007KT P6SM SCT060 BKN150
     FM192000 14006KT P6SM SCT050 BKN150
     FM200600 18008KT P6SM -RA OVC050=



000
FTUS46 KSEW 190500
TAFBFI
TAF
KBFI 190525Z 1906/2006 VRB03KT P6SM SCT070 BKN150
     FM192000 17005KT P6SM SCT050 BKN150=



000
FTUS46 KSEW 190500
TAFCLM
TAF
KCLM 190525Z 1906/2006 VRB03KT P6SM SCT050 BKN150
      TEMPO 1910/1914 3SM BR SCT010 SCT050 SCT150
     FM200000 24004KT P6SM OVC070
     FM200100 23006KT 5SM -RA BR OVC045=



000
FTUS46 KSEW 190500
TAFPAE
TAF
KPAE 190525Z 1906/2006 13004KT P6SM SCT040 BKN150
     FM192000 17008KT P6SM SCT050 BKN150=



000
FTUS46 KSEW 190500
TAFOLM
TAF
KOLM 190525Z 1906/2006 VRB03KT 1/2SM FG OVC002
      TEMPO 1906/1909 2SM BR SCT002 BKN150
     FM190900 00000KT 2SM BR FEW004 BKN120
     FM191300 00000KT 4SM BR SCT008 BKN100
     FM191900 19006KT P6SM SCT050 BKN100=



000
FTUS46 KSEW 190500
TAFHQM
TAF
KHQM 190525Z 1906/2006 06008KT 5SM BR SCT008 SCT015 OVC050
      TEMPO 1906/1910 2SM BR BKN008 OVC015
     FM191000 06004KT 5SM BR SCT015 SCT050 OVC100
     FM191300 09008KT P6SM BKN050 OVC100
     FM192000 14010KT P6SM -RA SCT018 OVC050
     FM200000 16012G20KT 5SM RA BR OVC018=



000
FTUS46 KSEW 190400 AAA
TAFOLM
TAF AMD
KOLM 190452Z 1905/1924 VRB03KT 3SM BR SCT002 SCT080 BKN150
      TEMPO 1905/1908 1/2SM FG OVC002
     FM190800 00000KT 1/2SM FG VV002
     FM191400 00000KT 4SM BR BKN003 BKN100
     FM191800 19006KT P6SM SCT050 BKN150=



000
FTUS46 KSEW 190400 AAA
TAFOLM
TAF AMD
KOLM 190452Z 1905/1924 VRB03KT 3SM BR SCT002 SCT080 BKN150
      TEMPO 1905/1908 1/2SM FG OVC002
     FM190800 00000KT 1/2SM FG VV002
     FM191400 00000KT 4SM BR BKN003 BKN100
     FM191800 19006KT P6SM SCT050 BKN150=



000
FTUS46 KSEW 190200 AAA
TAFHQM
TAF AMD
KHQM 190218Z 1902/1924 11005KT P6SM SCT012 BKN025 BKN040
      TEMPO 1902/1906 2SM BR BKN012
     FM190600 10008KT 2SM BR OVC008
     FM191100 12008KT 3SM BR OVC012
     FM191500 09008KT 5SM BR BKN015 OVC022
     FM192100 12010KT P6SM OVC050 PROB30 1921/1924 -SHRA BKN030
      OVC050=



000
FTUS46 KSEW 182300
TAFHQM
TAF
KHQM 182320Z 1900/1924 11005KT P6SM SCT025 BKN040
      TEMPO 1900/1903 BKN025 OVC040
     FM190500 10008KT P6SM BKN050 BKN150
     FM192100 12010KT P6SM OVC050 PROB30 1921/1924 -SHRA BKN030
      OVC050=



000
FTUS46 KSEW 182300
TAFPAE
TAF
KPAE 182320Z 1900/1924 15008KT P6SM SCT030 BKN070
     FM190400 13004KT P6SM SCT040 BKN150
     FM192000 16008KT P6SM SCT050 BKN150=



000
FTUS46 KSEW 182300
TAFOLM
TAF
KOLM 182320Z 1900/1924 23004KT P6SM FEW020 SCT045 BKN060
     FM190300 VRB03KT P6SM SCT050 BKN150
     FM190900 00000KT 4SM BR FEW004 BKN120
     FM191200 00000KT 2SM BR BKN003 BKN100
     FM191900 19006KT P6SM SCT050 BKN150=



000
FTUS46 KSEW 182300
TAFCLM
TAF
KCLM 182320Z 1900/1924 VRB03KT P6SM SCT050 BKN150
      AMD NOT SKED=



000
FTUS46 KSEW 182300
TAFSEA
TAF
KSEA 182320Z 1900/2006 16004KT P6SM SCT020 BKN070
      TEMPO 1900/1903 BKN020 OVC070
     FM190400 11004KT P6SM SCT040 BKN150
     FM192000 17006KT P6SM SCT050 BKN150=



000
FTUS46 KSEW 182300
TAFBLI
TAF
KBLI 182320Z 1900/1924 17006KT P6SM SCT035 BKN060
      TEMPO 1900/1903 BKN035 OVC060
     FM190400 VRB03KT P6SM SCT040 BKN150
     FM191900 16008KT P6SM SCT050 BKN150=



000
FTUS46 KSEW 182300
TAFBFI
TAF
KBFI 182320Z 1900/1924 09004KT P6SM SCT025 BKN070
      TEMPO 1900/1903 BKN025 OVC070
     FM190400 11004KT P6SM SCT045 BKN150
     FM192000 17005KT P6SM SCT050 BKN150=



000
FTUS46 KSEW 182100 AAA
TAFSEA
TAF AMD
KSEA 182102Z 1821/1924 VRB03KT P6SM BKN020 OVC070
     FM182200 21006KT P6SM SCT025 BKN040 BKN150
     FM190300 11004KT P6SM SCT040 BKN150=



000
FTUS46 KSEW 181700 AAA
TAFCLM
TAF AMD
KCLM 181731Z 1818/1918 VRB03KT P6SM SCT002 BKN070
      TEMPO 1818/1820 2SM -SHRA BR BKN002 OVC070
     FM182100 06003KT P6SM SCT040 BKN150=



000
FTUS46 KSEW 181700
TAFBLI
TAF
KBLI 181721Z 1818/1918 16006KT P6SM BKN015 OVC040
     FM182100 17008KT P6SM SCT030 BKN040 BKN150
     FM190300 VRB04KT P6SM SCT040 BKN150=



000
FTUS46 KSEW 181700
TAFBFI
TAF
KBFI 181721Z 1818/1918 16005KT P6SM SCT010 BKN030 OVC045
      TEMPO 1818/1820 5SM -SHRA BR BKN010 OVC030
     FM182200 21006KT P6SM SCT035 BKN045 BKN150
     FM190300 11004KT P6SM SCT045 BKN150=



000
FTUS46 KSEW 181700
TAFCLM
TAF
KCLM 181721Z 1818/1918 VRB03KT P6SM FEW030 BKN060
     FM182100 06003KT P6SM SCT040 BKN150=



000
FTUS46 KSEW 181700
TAFOLM
TAF
KOLM 181721Z 1818/1918 00000KT P6SM SCT010 BKN025 OVC040
      TEMPO 1818/1820 3SM -SHRA BR BKN010 OVC025
     FM182100 19006KT P6SM SCT025 BKN040 BKN150
     FM182300 22005KT P6SM SCT030 BKN150
     FM190900 00000KT 1SM BR BKN001=



000
FTUS46 KSEW 181700
TAFPAE
TAF
KPAE 181721Z 1818/1918 17012KT P6SM SCT007 BKN035 OVC070
      TEMPO 1818/1820 4SM -SHRA BR BKN007 OVC035
     FM182200 20006KT P6SM SCT030 BKN040 BKN150
     FM190300 15004KT P6SM SCT040 BKN150=



000
FTUS46 KSEW 181700
TAFHQM
TAF
KHQM 181721Z 1818/1918 08006KT P6SM SCT012 SCT035 BKN060
      TEMPO 1818/1820 3SM -SHRA BR BKN012 OVC035
     FM182100 11008KT P6SM SCT025 BKN150
     FM190300 09010KT P6SM BKN150=



000
FTUS46 KSEW 181700
TAFSEA
TAF
KSEA 181721Z 1818/1924 18005KT P6SM SCT008 BKN025 OVC040
      TEMPO 1818/1820 3SM -SHRA BR BKN005 OVC025
     FM182200 21006KT P6SM SCT025 BKN040 BKN150
     FM190300 11004KT P6SM SCT040 BKN150=



000
FTUS46 KSEW 181600 AAA
TAFOLM
TAF AMD
KOLM 181612Z 1816/1912 24003KT 4SM BR BKN010 OVC025
      TEMPO 1816/1818 P6SM NSW SCT010 BKN030 OVC050
     FM181800 19004KT P6SM SCT015 BKN030
     FM182000 19007KT P6SM SCT025 BKN040 BKN150
     FM182300 22005KT P6SM SCT030 BKN150
     FM190900 00000KT 1SM BR BKN001=



000
FTUS46 KSEW 181600 AAA
TAFOLM
TAF AMD
KOLM 181612Z 1816/1912 24003KT 4SM BR BKN010 OVC025
      TEMPO 1816/1818 P6SM NSW SCT010 BKN030 OVC050
     FM181800 19004KT P6SM SCT015 BKN030
     FM182000 19007KT P6SM SCT025 BKN040 BKN150
     FM182300 22005KT P6SM SCT030 BKN150
     FM190900 00000KT 1SM BR BKN001=



000
FTUS46 KSEW 181600 AAA
TAFPAE
TAF AMD
KPAE 181610Z 1816/1912 17012G18KT P6SM VCSH BKN007 BKN025 OVC070
      TEMPO 1816/1818 SCT006 SCT025 BKN070
     FM181800 18005KT P6SM SCT025 BKN040
     FM182100 20006KT P6SM SCT030 BKN040 BKN150
     FM190300 15004KT P6SM SCT040 BKN150=



000
FTUS46 KSEW 181600 AAA
TAFPAE
TAF AMD
KPAE 181610Z 1816/1912 17012G18KT P6SM VCSH BKN007 BKN025 OVC070
      TEMPO 1816/1818 SCT006 SCT025 BKN070
     FM181800 18005KT P6SM SCT025 BKN040
     FM182100 20006KT P6SM SCT030 BKN040 BKN150
     FM190300 15004KT P6SM SCT040 BKN150=



000
FTUS46 KSEW 181600 AAA
TAFBFI
TAF AMD
KBFI 181609Z 1816/1912 14009KT P6SM SCT008 BKN012 BKN035
      TEMPO 1816/1818 SCT015 BKN040
     FM181800 18005KT P6SM SCT025 BKN040
     FM182100 21006KT P6SM SCT035 BKN045 BKN150
     FM190300 11004KT P6SM SCT045 BKN150=



000
FTUS46 KSEW 181600 AAA
TAFBFI
TAF AMD
KBFI 181609Z 1816/1912 14009KT P6SM SCT008 BKN012 BKN035
      TEMPO 1816/1818 SCT015 BKN040
     FM181800 18005KT P6SM SCT025 BKN040
     FM182100 21006KT P6SM SCT035 BKN045 BKN150
     FM190300 11004KT P6SM SCT045 BKN150=



000
FTUS46 KSEW 181500 AAA
TAFSEA
TAF AMD
KSEA 181533Z 1816/1918 19006KT P6SM BKN007 OVC018
      TEMPO 1816/1818 SCT010 BKN025 OVC040
     FM181800 18005KT P6SM SCT025 BKN040
     FM182100 21006KT P6SM SCT025 BKN040 BKN150
     FM190300 11004KT P6SM SCT040 BKN150=



000
FTUS46 KSEW 181200 AAA
TAFCLM
TAF AMD
KCLM 181221Z 1812/1912 VRB04KT P6SM VCSH SCT008 BKN070
      TEMPO 1812/1816 1/2SM FG BKN008
     FM181700 09004KT P6SM SCT025 BKN040
     FM182100 06003KT P6SM SCT040 BKN150
      AMD NOT SKED=



000
FTUS46 KSEW 181100
TAFPAE
TAF
KPAE 181120Z 1812/1912 16012KT P6SM VCSH OVC020
      TEMPO 1812/1816 4SM -SHRA BKN004
     FM181700 18005KT P6SM SCT025 BKN030
     FM182100 20006KT P6SM SCT030 BKN040 BKN150
     FM190300 15004KT P6SM SCT040 BKN150=



000
FTUS46 KSEW 181100
TAFCLM
TAF
KCLM 181120Z 1812/1912 VRB04KT P6SM VCSH BKN020 OVC040
      TEMPO 1812/1816 3SM -SHRA BKN008
     FM181700 09004KT P6SM SCT025 BKN040
     FM182100 06003KT P6SM SCT040 BKN150
      AMD NOT SKED=



000
FTUS46 KSEW 181100
TAFSEA
TAF
KSEA 181120Z 1812/1918 15007KT P6SM VCSH SCT025 OVC035
      TEMPO 1812/1816 4SM -SHRA BKN025
     FM181700 18005KT P6SM SCT025 BKN030
     FM182100 21006KT P6SM SCT025 BKN040 BKN150
     FM190300 11004KT P6SM SCT040 BKN150=



000
FTUS46 KSEW 181100
TAFHQM
TAF
KHQM 181120Z 1812/1912 17009KT P6SM VCSH SCT011 OVC040
      TEMPO 1812/1816 -SHRA BKN011
     FM181700 14009KT P6SM BKN020 BKN040
     FM182100 12009KT P6SM SCT025 BKN150
     FM190300 09010KT P6SM BKN150=



000
FTUS46 KSEW 181100
TAFBLI
TAF
KBLI 181120Z 1812/1912 16010KT P6SM VCSH OVC018
      TEMPO 1812/1816 -SHRA BKN015
     FM181700 16009KT P6SM SCT025 BKN040
     FM182100 17007KT P6SM SCT030 BKN040 BKN150
     FM190300 VRB04KT P6SM SCT040 BKN150=



000
FTUS46 KSEW 181100
TAFBFI
TAF
KBFI 181120Z 1812/1912 12005KT P6SM VCSH SCT025 OVC035
      TEMPO 1812/1816 3SM -SHRA BKN025
     FM181700 18005KT P6SM SCT030 BKN040
     FM182100 21006KT P6SM SCT035 BKN045 BKN150
     FM190300 11004KT P6SM SCT045 BKN150=



000
FTUS46 KSEW 181100
TAFOLM
TAF
KOLM 181120Z 1812/1912 20008KT P6SM VCSH BKN015 OVC030
      TEMPO 1812/1816 4SM -SHRA
     FM181700 19004KT P6SM SCT020 BKN030
     FM182000 19007KT P6SM SCT025 BKN040 BKN150
     FM182300 22005KT P6SM SCT030 BKN150
     FM190900 00000KT 1SM BR BKN001=



000
FTUS46 KSEW 181100
TAFHQM
TAF
KHQM 181120Z 1812/1912 17009KT P6SM VCSH SCT011 OVC040
      TEMPO 1812/1816 -SHRA BKN011
     FM181700 14009KT P6SM BKN020 BKN040
     FM182100 12009KT P6SM SCT025 BKN150
     FM190300 09010KT P6SM BKN150=



000
FTUS46 KSEW 181100
TAFPAE
TAF
KPAE 181120Z 1812/1912 16012KT P6SM VCSH OVC020
      TEMPO 1812/1816 4SM -SHRA BKN004
     FM181700 18005KT P6SM SCT025 BKN030
     FM182100 20006KT P6SM SCT030 BKN040 BKN150
     FM190300 15004KT P6SM SCT040 BKN150=



000
FTUS46 KSEW 181100
TAFOLM
TAF
KOLM 181120Z 1812/1912 20008KT P6SM VCSH BKN015 OVC030
      TEMPO 1812/1816 4SM -SHRA
     FM181700 19004KT P6SM SCT020 BKN030
     FM182000 19007KT P6SM SCT025 BKN040 BKN150
     FM182300 22005KT P6SM SCT030 BKN150
     FM190900 00000KT 1SM BR BKN001=



000
FTUS46 KSEW 181100
TAFSEA
TAF
KSEA 181120Z 1812/1918 15007KT P6SM VCSH SCT025 OVC035
      TEMPO 1812/1816 4SM -SHRA BKN025
     FM181700 18005KT P6SM SCT025 BKN030
     FM182100 21006KT P6SM SCT025 BKN040 BKN150
     FM190300 11004KT P6SM SCT040 BKN150=



000
FTUS46 KSEW 181100
TAFBFI
TAF
KBFI 181120Z 1812/1912 12005KT P6SM VCSH SCT025 OVC035
      TEMPO 1812/1816 3SM -SHRA BKN025
     FM181700 18005KT P6SM SCT030 BKN040
     FM182100 21006KT P6SM SCT035 BKN045 BKN150
     FM190300 11004KT P6SM SCT045 BKN150=



000
FTUS46 KSEW 181100
TAFCLM
TAF
KCLM 181120Z 1812/1912 VRB04KT P6SM VCSH BKN020 OVC040
      TEMPO 1812/1816 3SM -SHRA BKN008
     FM181700 09004KT P6SM SCT025 BKN040
     FM182100 06003KT P6SM SCT040 BKN150
      AMD NOT SKED=



000
FTUS46 KSEW 181100
TAFBLI
TAF
KBLI 181120Z 1812/1912 16010KT P6SM VCSH OVC018
      TEMPO 1812/1816 -SHRA BKN015
     FM181700 16009KT P6SM SCT025 BKN040
     FM182100 17007KT P6SM SCT030 BKN040 BKN150
     FM190300 VRB04KT P6SM SCT040 BKN150=



000
FTUS46 KSEW 180900 AAA
TAFSEA
TAF AMD
KSEA 180906Z 1809/1912 15008KT P6SM -SHRA OVC035
     FM181200 17006KT P6SM VCSH OVC025
     FM181700 18005KT P6SM SCT015 BKN030
     FM182100 21006KT P6SM SCT025 BKN040
     FM190300 11004KT P6SM SCT040=



000
FTUS46 KSEW 180500
TAFCLM
TAF
KCLM 180524Z 1806/1906 VRB04KT P6SM -SHRA SCT030 BKN045
     FM181000 23004KT P6SM VCSH SCT025 BKN030
     FM181400 24003KT P6SM SCT012 BKN025
     FM182000 05003KT P6SM SCT035
      AMD NOT SKED=



000
FTUS46 KSEW 180500
TAFBLI
TAF
KBLI 180524Z 1806/1906 16012G22KT P6SM -SHRA OVC025
     FM181000 16009KT P6SM VCSH SCT018 OVC022
     FM182000 17007KT P6SM SCT030=



000
FTUS46 KSEW 180500
TAFPAE
TAF
KPAE 180524Z 1806/1906 15010KT P6SM -SHRA OVC030
     FM181000 16009KT P6SM VCSH SCT005 BKN009 OVC015
     FM181800 16010KT P6SM SCT018 BKN035
     FM182200 17008KT P6SM SCT030 BKN040
     FM190300 15005KT P6SM SCT045=



000
FTUS46 KSEW 180500
TAFSEA
TAF
KSEA 180524Z 1806/1912 15008KT P6SM -SHRA OVC035
     FM181000 17006KT P6SM VCSH BKN015 OVC025
     FM181700 18005KT P6SM SCT015 BKN025
     FM182100 21006KT P6SM SCT025 BKN040
     FM190300 11004KT P6SM SCT040=



000
FTUS46 KSEW 180500
TAFBFI
TAF
KBFI 180524Z 1806/1906 15005KT P6SM -RA OVC035
     FM181000 15005KT P6SM VCSH OVC025
     FM181700 15005KT P6SM SCT020 BKN030
     FM182100 19005KT P6SM SCT030 BKN040
     FM190300 12004KT P6SM SCT045=



000
FTUS46 KSEW 180500
TAFOLM
TAF
KOLM 180524Z 1806/1906 20008KT P6SM -SHRA OVC030
     FM181000 VRB04KT 3SM BR VCSH OVC008
     FM181700 19004KT P6SM SCT008 BKN012
     FM182000 19007KT P6SM SCT018 BKN030
     FM182300 22005KT P6SM SCT030=



000
FTUS46 KSEW 180500
TAFHQM
TAF
KHQM 180524Z 1806/1906 17009KT P6SM -SHRA SCT008 OVC012
      TEMPO 1806/1810 3SM -SHRA BKN008
     FM181000 12008KT 5SM BR OVC008
     FM181700 12006KT P6SM BKN012
     FM182100 15009KT P6SM SCT025 BKN150=



000
FTUS46 KSEW 180400 AAB
TAFHQM
TAF AMD
KHQM 180416Z 1804/1824 15015G25KT P6SM -SHRA SCT008 OVC012
      TEMPO 1804/1808 2SM -SHRA BR BKN008 OVC012
     FM180900 12008KT 5SM BR OVC008
     FM181700 12006KT P6SM BKN012
     FM182100 15009KT P6SM SCT018=



000
FTUS46 KSEW 180400 AAB
TAFHQM
TAF AMD
KHQM 180416Z 1804/1824 15015G25KT P6SM -SHRA SCT008 OVC012
      TEMPO 1804/1808 2SM -SHRA BR BKN008 OVC012
     FM180900 12008KT 5SM BR OVC008
     FM181700 12006KT P6SM BKN012
     FM182100 15009KT P6SM SCT018=



000
FTUS46 KSEW 180300 AAA
TAFSEA
TAF AMD
KSEA 180304Z 1803/1906 15008KT P6SM -SHRA SCT035 OVC045
     FM180800 17006KT P6SM -SHRA SCT012 OVC025
     FM181200 17006KT P6SM VCSH SCT008 BKN012 OVC020
     FM181700 18005KT P6SM SCT010 BKN020
     FM182100 21006KT P6SM SCT025 BKN040
     FM190300 11004KT P6SM SCT040=



000
FTUS46 KSEW 180100 AAA
TAFPAE
TAF AMD
KPAE 180119Z 1801/1824 16012G20KT P6SM -RA BKN025 OVC035
      TEMPO 1801/1803 3SM BR BKN020 OVC035
     FM180600 17013G18KT P6SM -SHRA SCT015 OVC025
     FM181300 16009KT P6SM VCSH SCT005 BKN009 OVC015
     FM181800 16010KT P6SM SCT018 BKN035
     FM182200 17008KT P6SM SCT040=



000
FTUS46 KSEW 180100 AAA
TAFHQM
TAF AMD
KHQM 180119Z 1801/1824 15015G25KT P6SM -SHRA SCT008 OVC012
      TEMPO 1801/1804 2SM -SHRA BR BKN008 OVC012
     FM180900 12008KT 5SM BR OVC008
     FM181700 12006KT P6SM BKN012
     FM182100 15009KT P6SM SCT018=



000
FTUS46 KSEW 172300
TAFOLM
TAF
KOLM 172335Z 1800/1824 20008KT P6SM -SHRA SCT025 OVC040
     FM180200 19009KT P6SM -SHRA SCT012 OVC030
     FM180700 19005KT 5SM -SHRA BR OVC012
     FM181100 VRB04KT 3SM BR VCSH OVC008
     FM181700 19004KT P6SM SCT008 BKN012
     FM182000 19007KT P6SM SCT018 BKN030
     FM182300 22005KT P6SM SCT030=



000
FTUS46 KSEW 172300
TAFBLI
TAF
KBLI 172335Z 1800/1824 13012KT P6SM -RA SCT035 OVC045
     FM180300 16012G22KT P6SM -SHRA BKN030 OVC045
     FM180700 16009KT P6SM -SHRA SCT018 OVC025
     FM181600 16009KT P6SM SCT018 BKN030
     FM182000 17007KT P6SM SCT030=



000
FTUS46 KSEW 172300
TAFCLM
TAF
KCLM 172335Z 1800/1824 06003KT P6SM -SHRA OVC060
     FM180500 23004KT P6SM VCSH BKN050
     FM181500 24003KT P6SM SCT012 SCT025
     FM182000 05003KT P6SM SCT035=



000
FTUS46 KSEW 172300
TAFHQM
TAF
KHQM 172335Z 1800/1824 15013KT P6SM -SHRA SCT008 OVC012
      TEMPO 1800/1802 2SM -SHRA BR BKN008 OVC012
     FM180900 12008KT 5SM BR OVC008
     FM181700 12006KT P6SM BKN012
     FM182100 15009KT P6SM SCT018=



000
FTUS46 KSEW 172300
TAFPAE
TAF
KPAE 172335Z 1800/1824 16012G20KT P6SM -RA OVC040
     FM180600 17013G18KT P6SM -SHRA SCT015 OVC025
     FM181300 16009KT P6SM VCSH SCT005 BKN009 OVC015
     FM181800 16010KT P6SM SCT018 BKN035
     FM182200 17008KT P6SM SCT040=



000
FTUS46 KSEW 172300
TAFOLM
TAF
KOLM 172335Z 1800/1824 20008KT P6SM -SHRA SCT025 OVC040
     FM180200 19009KT P6SM -SHRA SCT012 OVC030
     FM180700 19005KT 5SM -SHRA BR OVC012
     FM181100 VRB04KT 3SM BR VCSH OVC008
     FM181700 19004KT P6SM SCT008 BKN012
     FM182000 19007KT P6SM SCT018 BKN030
     FM182300 22005KT P6SM SCT030=



000
FTUS46 KSEW 172300
TAFBFI
TAF
KBFI 172335Z 1800/1824 13005KT P6SM -RA SCT030 OVC045
     FM180800 16005KT P6SM -SHRA SCT015 OVC025
     FM181200 15005KT P6SM VCSH SCT010 BKN015 OVC020
     FM181700 15005KT P6SM SCT015 BKN025
     FM182100 19005KT P6SM SCT030 BKN040=



000
FTUS46 KSEW 172300
TAFSEA
TAF
KSEA 172335Z 1800/1906 15008KT P6SM -RA SCT025 OVC040
     FM180800 17006KT P6SM -SHRA SCT012 OVC025
     FM181200 17006KT P6SM VCSH SCT008 BKN012 OVC020
     FM181700 18005KT P6SM SCT010 BKN020
     FM182100 21006KT P6SM SCT025 BKN040
     FM190300 11004KT P6SM SCT040=



000
FTUS46 KSEW 172300
TAFBFI
TAF
KBFI 172335Z 1800/1824 13005KT P6SM -RA SCT030 OVC045
     FM180800 16005KT P6SM -SHRA SCT015 OVC025
     FM181200 15005KT P6SM VCSH SCT010 BKN015 OVC020
     FM181700 15005KT P6SM SCT015 BKN025
     FM182100 19005KT P6SM SCT030 BKN040=



000
FTUS46 KSEW 172300
TAFBLI
TAF
KBLI 172335Z 1800/1824 13012KT P6SM -RA SCT035 OVC045
     FM180300 16012G22KT P6SM -SHRA BKN030 OVC045
     FM180700 16009KT P6SM -SHRA SCT018 OVC025
     FM181600 16009KT P6SM SCT018 BKN030
     FM182000 17007KT P6SM SCT030=



000
FTUS46 KSEW 172300
TAFHQM
TAF
KHQM 172335Z 1800/1824 15013KT P6SM -SHRA SCT008 OVC012
      TEMPO 1800/1802 2SM -SHRA BR BKN008 OVC012
     FM180900 12008KT 5SM BR OVC008
     FM181700 12006KT P6SM BKN012
     FM182100 15009KT P6SM SCT018=



000
FTUS46 KSEW 172300
TAFCLM
TAF
KCLM 172335Z 1800/1824 06003KT P6SM -SHRA OVC060
     FM180500 23004KT P6SM VCSH BKN050
     FM181500 24003KT P6SM SCT012 SCT025
     FM182000 05003KT P6SM SCT035=



000
FTUS46 KSEW 172300
TAFPAE
TAF
KPAE 172335Z 1800/1824 16012G20KT P6SM -RA OVC040
     FM180600 17013G18KT P6SM -SHRA SCT015 OVC025
     FM181300 16009KT P6SM VCSH SCT005 BKN009 OVC015
     FM181800 16010KT P6SM SCT018 BKN035
     FM182200 17008KT P6SM SCT040=



000
FTUS46 KSEW 172300
TAFSEA
TAF
KSEA 172335Z 1800/1906 15008KT P6SM -RA SCT025 OVC040
     FM180800 17006KT P6SM -SHRA SCT012 OVC025
     FM181200 17006KT P6SM VCSH SCT008 BKN012 OVC020
     FM181700 18005KT P6SM SCT010 BKN020
     FM182100 21006KT P6SM SCT025 BKN040
     FM190300 11004KT P6SM SCT040=



000
FTUS46 KSEW 172100 AAA
TAFSEA
TAF AMD
KSEA 172103Z 1721/1824 11006KT P6SM -RA SCT045 OVC060
     FM172200 14005KT P6SM -RA SCT035 OVC050
     FM180100 16009KT P6SM -SHRA SCT025 OVC040
     FM181000 17006KT P6SM -SHRA SCT012 OVC025
     FM181300 17006KT P6SM VCSH SCT008 BKN014 OVC020
     FM181700 18005KT P6SM SCT012 BKN020
     FM182100 21006KT P6SM SCT025 BKN040=



000
FTUS46 KSEW 171700 RRA
TAFHQM
TAF
KHQM 171741Z 1718/1818 08012G22KT P6SM -RA SCT030 OVC045
     FM172100 11013G23KT 4SM RA BR SCT012 OVC020
     FM180000 15013KT P6SM -SHRA SCT008 OVC012
     FM180900 12008KT 5SM BR OVC008
     FM181700 12006KT P6SM SCT010=



000
FTUS46 KSEW 171700 RRA
TAFSEA
TAF
KSEA 171741Z 1718/1824 13006KT P6SM -RA SCT050 OVC070
     FM172200 14005KT P6SM -RA SCT035 OVC050
     FM180100 16009KT P6SM -SHRA SCT025 OVC040
     FM181000 17006KT P6SM -SHRA SCT012 OVC025
     FM181300 17006KT P6SM VCSH SCT008 BKN014 OVC020
     FM181700 18005KT P6SM SCT012 BKN020
     FM182100 21006KT P6SM SCT025 BKN040=



000
FTUS46 KSEW 171700 RRA
TAFCLM
TAF
KCLM 171741Z 1718/1818 06003KT P6SM -RA OVC070
     FM180400 23004KT P6SM VCSH BKN050
     FM181500 24003KT P6SM SCT012 SCT025=



000
FTUS46 KSEW 171700 RRA
TAFBLI
TAF
KBLI 171741Z 1718/1818 07004KT P6SM -RA SCT045 OVC060
     FM172200 14012KT P6SM -RA SCT035 OVC045
     FM180100 16012G22KT P6SM -SHRA BKN030 OVC045
     FM180700 16009KT P6SM -SHRA SCT018 OVC025
     FM181600 16009KT P6SM SCT018 BKN030=



000
FTUS46 KSEW 171700 RRA
TAFBFI
TAF
KBFI 171741Z 1718/1818 13004KT P6SM -RA SCT050 OVC080
     FM172200 14005KT P6SM -RA SCT040 OVC050
     FM180100 15007KT P6SM -SHRA SCT030 OVC040
     FM181000 16005KT P6SM -SHRA SCT015 OVC025
     FM181300 15005KT P6SM VCSH SCT010 BKN015 OVC020
     FM181700 15005KT P6SM SCT015 BKN025=



000
FTUS46 KSEW 171700 RRA
TAFOLM
TAF
KOLM 171741Z 1718/1818 VRB03KT P6SM -RA OVC060
     FM172100 20008KT 6SM -RA BR SCT025 OVC040
     FM180200 19010KT P6SM -SHRA SCT018 OVC030
     FM180700 19005KT 5SM -SHRA BR OVC012
     FM181100 VRB04KT 3SM BR VCSH OVC008
     FM181700 19004KT P6SM SCT008 BKN012=



000
FTUS46 KSEW 171700 RRA
TAFPAE
TAF
KPAE 171741Z 1718/1818 16009KT P6SM -RA SCT050 OVC070
     FM172200 14012KT P6SM -RA OVC045
     FM180100 16013G19KT P6SM -SHRA SCT025 OVC035
     FM180600 17013G18KT P6SM -SHRA SCT015 OVC025
     FM181300 16009KT P6SM VCSH SCT005 BKN009 OVC015=



000
FTUS46 KSEW 171500 AAA
TAFSEA
TAF AMD
KSEA 171510Z 1715/1818 13006KT P6SM -RA OVC050
     FM172200 16012KT P6SM -RA BKN025 OVC045
      TEMPO 1722/1802 4SM RA BR OVC025
     FM180200 19013G20KT P6SM -SHRA BKN030 OVC045
     FM180600 17010KT P6SM VCSH OVC025
     FM181200 17006KT P6SM OVC015=



    US Dept of Commerce
    National Oceanic and Atmospheric Administration
    National Weather Service
    1325 East West Highway
    Silver Spring, MD 20910
    Page Author: NWS Internet Services Team
Disclaimer
Information Quality
Credits
Glossary
Privacy Policy
Freedom of Information Act (FOIA)
About Us
Career Opportunities